createdAt,value
2022-08-12T00:01:03.431Z,16.61
2022-08-12T00:03:50.589Z,16.59
2022-08-12T00:06:38.391Z,16.53
2022-08-12T00:09:26.360Z,16.48
2022-08-12T00:12:12.869Z,16.40
2022-08-12T00:14:58.239Z,16.35
2022-08-12T00:17:43.472Z,16.33
2022-08-12T00:20:29.753Z,16.30
2022-08-12T00:23:16.987Z,16.27
2022-08-12T00:26:21.426Z,16.23
2022-08-12T00:29:10.442Z,16.15
2022-08-12T00:31:55.579Z,16.14
2022-08-12T00:34:40.662Z,16.09
2022-08-12T00:37:25.494Z,16.07
2022-08-12T00:40:12.578Z,16.06
2022-08-12T00:42:40.726Z,16.07
2022-08-12T00:45:08.528Z,16.01
2022-08-12T00:47:35.765Z,16.06
2022-08-12T00:50:02.838Z,16.01
2022-08-12T00:52:29.446Z,16.02
2022-08-12T00:54:59.283Z,15.96
2022-08-12T00:57:31.604Z,15.97
2022-08-12T01:00:00.477Z,15.95
2022-08-12T01:02:34.345Z,15.87
2022-08-12T01:05:25.880Z,15.79
2022-08-12T01:08:11.765Z,15.71
2022-08-12T01:11:00.124Z,15.66
2022-08-12T01:13:29.955Z,15.59
2022-08-12T01:15:58.963Z,15.56
2022-08-12T01:18:28.400Z,15.49
2022-08-12T01:21:17.179Z,15.43
2022-08-12T01:23:53.255Z,15.36
2022-08-12T01:26:24.953Z,15.37
2022-08-12T01:28:58.465Z,15.32
2022-08-12T01:31:27.119Z,15.27
2022-08-12T01:34:03.563Z,15.26
2022-08-12T01:36:46.508Z,15.30
2022-08-12T01:39:17.836Z,15.25
2022-08-12T01:41:50.499Z,15.21
2022-08-12T01:44:22.488Z,15.18
2022-08-12T01:46:59.954Z,15.13
2022-08-12T01:49:57.191Z,15.08
2022-08-12T01:52:48.756Z,15.04
2022-08-12T01:55:20.164Z,15.00
2022-08-12T01:57:59.700Z,14.94
2022-08-12T02:00:43.210Z,14.91
2022-08-12T02:04:20.069Z,14.84
2022-08-12T02:07:15.040Z,14.81
2022-08-12T02:10:49.958Z,14.77
2022-08-12T02:13:33.140Z,14.69
2022-08-12T02:16:37.966Z,14.64
2022-08-12T02:19:27.614Z,14.60
2022-08-12T02:22:22.173Z,14.58
2022-08-12T02:24:50.726Z,14.53
2022-08-12T02:27:19.377Z,14.49
2022-08-12T02:29:45.902Z,14.47
2022-08-12T02:32:13.707Z,14.40
2022-08-12T02:34:40.556Z,14.37
2022-08-12T02:37:09.041Z,14.36
2022-08-12T02:39:37.327Z,14.31
2022-08-12T02:42:04.703Z,14.25
2022-08-12T02:44:36.752Z,14.22
2022-08-12T02:47:06.184Z,14.21
2022-08-12T02:49:35.390Z,14.19
2022-08-12T02:52:02.873Z,14.17
2022-08-12T02:54:29.405Z,14.13
2022-08-12T02:56:55.855Z,14.07
2022-08-12T02:59:24.711Z,14.04
2022-08-12T03:01:54.018Z,13.99
2022-08-12T03:04:53.923Z,13.91
2022-08-12T03:07:29.603Z,13.87
2022-08-12T03:10:16.203Z,13.83
2022-08-12T03:12:49.030Z,13.80
2022-08-12T03:15:18.915Z,13.76
2022-08-12T03:18:27.256Z,13.74
2022-08-12T03:20:47.659Z,13.70
2022-08-12T03:23:17.331Z,13.91
2022-08-12T03:25:52.116Z,14.08
2022-08-12T03:28:39.657Z,13.92
2022-08-12T03:31:08.692Z,13.87
2022-08-12T03:33:39.684Z,13.99
2022-08-12T03:36:08.633Z,13.85
2022-08-12T03:38:42.892Z,13.85
2022-08-12T03:41:34.164Z,13.79
2022-08-12T03:44:30.614Z,13.80
2022-08-12T03:47:19.717Z,13.72
2022-08-12T03:50:04.896Z,13.62
2022-08-12T03:52:50.212Z,13.51
2022-08-12T03:55:35.432Z,13.45
2022-08-12T03:58:21.174Z,13.43
2022-08-12T04:00:47.985Z,13.38
2022-08-12T04:03:43.904Z,13.35
2022-08-12T04:06:10.497Z,13.36
2022-08-12T04:08:37.068Z,13.43
2022-08-12T04:11:22.804Z,13.40
2022-08-12T04:13:50.454Z,13.40
2022-08-12T04:16:17.174Z,13.40
2022-08-12T04:18:44.144Z,13.42
2022-08-12T04:21:10.659Z,13.45
2022-08-12T04:23:46.333Z,13.46
2022-08-12T04:26:14.778Z,13.47
2022-08-12T04:28:41.248Z,13.49
2022-08-12T04:31:07.875Z,13.51
2022-08-12T04:33:34.717Z,13.53
2022-08-12T04:36:01.363Z,13.57
2022-08-12T04:38:29.096Z,13.60
2022-08-12T04:40:56.005Z,13.67
2022-08-12T04:44:00.454Z,13.69
2022-08-12T04:46:09.349Z,13.80
2022-08-12T04:48:35.760Z,13.84
2022-08-12T04:51:02.570Z,13.94
2022-08-12T04:53:29.335Z,14.12
2022-08-12T04:55:55.933Z,14.29
2022-08-12T04:58:29.534Z,14.43
2022-08-12T05:00:56.797Z,14.46
2022-08-12T05:03:25.401Z,14.53
2022-08-12T05:05:52.342Z,14.64
2022-08-12T05:08:19.484Z,14.67
2022-08-12T05:10:47.329Z,14.70
2022-08-12T05:13:19.815Z,14.75
2022-08-12T05:16:04.026Z,14.93
2022-08-12T05:18:39.435Z,14.98
2022-08-12T05:21:07.671Z,14.94
2022-08-12T05:23:36.546Z,14.96
2022-08-12T05:26:04.928Z,15.02
2022-08-12T05:28:31.861Z,15.35
2022-08-12T05:31:00.117Z,15.32
2022-08-12T05:33:35.629Z,15.36
2022-08-12T05:36:02.080Z,15.49
2022-08-12T05:38:47.216Z,15.53
2022-08-12T05:41:20.320Z,15.66
2022-08-12T05:43:48.434Z,15.81
2022-08-12T05:46:18.217Z,15.89
2022-08-12T05:48:44.741Z,15.94
2022-08-12T05:51:11.348Z,16.20
2022-08-12T05:53:39.483Z,16.28
2022-08-12T05:56:06.971Z,16.59
2022-08-12T05:58:34.791Z,16.72
2022-08-12T06:01:01.326Z,16.81
2022-08-12T06:03:47.981Z,16.73
2022-08-12T06:06:17.096Z,16.83
2022-08-12T06:08:48.539Z,16.88
2022-08-12T06:11:18.978Z,17.19
2022-08-12T06:13:53.911Z,17.17
2022-08-12T06:16:22.935Z,17.51
2022-08-12T06:18:49.791Z,17.73
2022-08-12T06:21:18.655Z,17.86
2022-08-12T06:23:45.428Z,18.17
2022-08-12T06:26:14.254Z,18.54
2022-08-12T06:28:42.065Z,19.46
2022-08-12T06:31:25.262Z,20.32
2022-08-12T06:33:55.583Z,21.39
2022-08-12T06:36:30.086Z,22.46
2022-08-12T06:39:00.237Z,22.88
2022-08-12T06:42:05.024Z,24.10
2022-08-12T06:44:32.639Z,24.65
2022-08-12T06:46:59.316Z,25.92
2022-08-12T06:49:25.977Z,26.09
2022-08-12T06:51:56.901Z,26.32
2022-08-12T06:54:29.829Z,27.11
2022-08-12T06:57:04.862Z,27.67
2022-08-12T06:59:32.289Z,28.17
2022-08-12T07:01:58.863Z,28.31
2022-08-12T07:04:36.201Z,28.52
2022-08-12T07:07:08.963Z,28.08
2022-08-12T07:10:05.155Z,27.75
2022-08-12T07:12:22.598Z,27.06
2022-08-12T07:14:52.726Z,26.44
2022-08-12T07:17:19.154Z,25.59
2022-08-12T07:19:48.635Z,25.46
2022-08-12T07:22:16.050Z,24.93
2022-08-12T07:24:42.518Z,25.18
2022-08-12T07:27:09.238Z,24.75
2022-08-12T07:30:00.013Z,24.08
2022-08-12T07:32:25.809Z,24.05
2022-08-12T07:34:56.519Z,23.81
2022-08-12T07:37:23.493Z,22.94
2022-08-12T07:39:59.890Z,23.41
2022-08-12T07:42:27.868Z,23.18
2022-08-12T07:44:54.965Z,23.51
2022-08-12T07:47:21.453Z,23.91
2022-08-12T07:50:04.247Z,24.18
2022-08-12T07:52:38.271Z,24.67
2022-08-12T07:55:05.828Z,25.57
2022-08-12T07:57:34.914Z,25.49
2022-08-12T08:00:04.140Z,26.36
2022-08-12T08:02:33.600Z,28.01
2022-08-12T08:05:00.545Z,30.06
2022-08-12T08:07:30.460Z,29.44
2022-08-12T08:09:59.239Z,30.58
2022-08-12T08:12:45.494Z,31.20
2022-08-12T08:15:12.020Z,32.51
2022-08-12T08:17:38.808Z,33.21
2022-08-12T08:20:08.108Z,34.09
2022-08-12T08:22:40.802Z,35.11
2022-08-12T08:25:34.274Z,32.87
2022-08-12T08:27:55.483Z,31.33
2022-08-12T08:30:22.684Z,30.59
2022-08-12T08:32:49.424Z,31.57
2022-08-12T08:35:15.889Z,31.24
2022-08-12T08:37:46.974Z,30.85
2022-08-12T08:40:33.648Z,30.41
2022-08-12T08:43:00.094Z,31.56
2022-08-12T08:45:28.329Z,34.08
2022-08-12T08:47:58.405Z,35.73
2022-08-12T08:50:27.209Z,36.81
2022-08-12T08:52:53.854Z,37.31
2022-08-12T08:55:27.409Z,36.40
2022-08-12T08:57:59.988Z,35.27
2022-08-12T09:00:26.712Z,35.33
2022-08-12T09:02:58.652Z,36.20
2022-08-12T09:05:27.824Z,37.06
2022-08-12T09:08:09.050Z,36.53
2022-08-12T09:10:45.199Z,34.45
2022-08-12T09:14:11.961Z,31.80
2022-08-12T09:16:20.070Z,31.24
2022-08-12T09:18:48.281Z,32.63
2022-08-12T09:21:19.617Z,34.58
2022-08-12T09:23:58.325Z,34.31
2022-08-12T09:26:29.173Z,31.33
2022-08-12T09:28:56.865Z,29.81
2022-08-12T09:32:03.473Z,30.02
2022-08-12T09:34:28.300Z,29.22
2022-08-12T09:37:02.514Z,29.07
2022-08-12T09:40:01.716Z,30.50
2022-08-12T09:42:54.144Z,33.16
2022-08-12T09:46:06.465Z,34.98
2022-08-12T09:48:19.853Z,35.29
2022-08-12T09:50:52.190Z,34.71
2022-08-12T09:53:36.008Z,34.50
2022-08-12T09:56:57.214Z,33.10
2022-08-12T09:59:00.260Z,34.44
2022-08-12T10:01:35.404Z,34.33
2022-08-12T10:04:15.587Z,36.09
2022-08-12T10:06:53.975Z,35.18
2022-08-12T10:09:57.572Z,32.87
2022-08-12T10:12:32.999Z,33.78
2022-08-12T10:15:03.557Z,34.97
2022-08-12T10:17:30.200Z,36.88
2022-08-12T10:19:59.907Z,35.25
2022-08-12T10:22:40.193Z,34.52
2022-08-12T10:26:09.992Z,34.68
2022-08-12T10:28:34.921Z,35.95
2022-08-12T10:31:04.890Z,36.72
2022-08-12T10:33:33.317Z,37.91
2022-08-12T10:36:01.853Z,35.91
2022-08-12T10:38:34.604Z,34.29
2022-08-12T10:41:57.161Z,33.69
2022-08-12T10:44:16.903Z,33.66
2022-08-12T10:46:45.997Z,32.83
2022-08-12T10:50:03.114Z,34.78
2022-08-12T10:52:34.700Z,36.78
2022-08-12T10:54:55.964Z,38.33
2022-08-12T10:58:14.096Z,38.53
2022-08-12T11:00:34.838Z,34.69
2022-08-12T11:04:22.642Z,35.08
2022-08-12T11:07:06.267Z,33.20
2022-08-12T11:08:43.569Z,32.08
2022-08-12T11:11:17.822Z,30.74
2022-08-12T11:14:04.533Z,32.82
2022-08-12T11:16:32.659Z,33.84
2022-08-12T11:18:59.150Z,33.27
2022-08-12T11:21:51.103Z,32.22
2022-08-12T11:24:30.483Z,31.38
2022-08-12T11:27:00.353Z,29.68
2022-08-12T11:30:05.249Z,29.50
2022-08-12T11:32:15.495Z,29.23
2022-08-12T11:34:51.716Z,29.80
2022-08-12T11:37:25.769Z,29.05
2022-08-12T11:42:39.608Z,29.60
2022-08-12T11:45:10.578Z,30.78
2022-08-12T11:47:40.206Z,32.48
2022-08-12T11:50:07.901Z,32.93
2022-08-12T11:52:55.864Z,33.54
2022-08-12T11:55:24.003Z,34.00
2022-08-12T11:58:07.475Z,31.44
2022-08-12T12:03:26.259Z,30.56
2022-08-12T12:06:10.752Z,32.53
2022-08-12T12:08:47.002Z,34.63
2022-08-12T12:11:17.456Z,34.24
2022-08-12T12:14:08.202Z,32.33
2022-08-12T12:16:33.343Z,32.21
2022-08-12T12:19:05.507Z,32.89
2022-08-12T12:21:47.172Z,32.85
2022-08-12T12:24:21.117Z,32.83
2022-08-12T12:27:00.345Z,33.96
2022-08-12T12:30:14.011Z,34.60
2022-08-12T12:32:18.420Z,33.86
2022-08-12T12:35:14.570Z,33.58
2022-08-12T12:38:04.104Z,32.56
2022-08-12T12:40:19.297Z,31.94
2022-08-12T12:42:56.749Z,32.58
2022-08-12T12:45:32.549Z,33.06
2022-08-12T12:48:08.199Z,34.09
2022-08-12T12:50:51.617Z,34.77
2022-08-12T12:54:06.598Z,34.72
2022-08-12T12:56:15.631Z,33.78
2022-08-12T12:58:43.400Z,34.03
2022-08-12T13:01:27.942Z,33.88
2022-08-12T13:04:02.114Z,34.23
2022-08-12T13:06:31.401Z,33.90
2022-08-12T13:09:02.436Z,31.43
2022-08-12T13:11:39.040Z,32.17
2022-08-12T13:14:12.962Z,32.29
2022-08-12T13:16:56.601Z,33.11
2022-08-12T13:19:37.584Z,32.95
2022-08-12T13:22:18.466Z,32.51
2022-08-12T13:24:51.804Z,31.92
2022-08-12T13:27:21.606Z,31.15
2022-08-12T13:29:48.928Z,31.30
2022-08-12T13:32:30.750Z,31.61
2022-08-12T13:35:04.184Z,32.34
2022-08-12T13:37:55.262Z,32.38
2022-08-12T13:40:30.670Z,29.81
2022-08-12T13:42:58.242Z,30.68
2022-08-12T13:45:26.086Z,31.36
2022-08-12T13:47:58.499Z,31.51
2022-08-12T13:50:33.757Z,31.44
2022-08-12T13:53:06.307Z,31.07
2022-08-12T13:55:49.901Z,29.36
2022-08-12T13:58:26.404Z,29.10
2022-08-12T14:00:53.570Z,29.97
2022-08-12T14:03:21.742Z,30.74
2022-08-12T14:05:56.301Z,31.28
2022-08-12T14:08:23.145Z,31.31
2022-08-12T14:10:53.429Z,31.71
2022-08-12T14:14:03.306Z,31.67
2022-08-12T14:16:38.213Z,31.97
2022-08-12T14:19:22.609Z,32.13
2022-08-12T14:22:01.124Z,31.72
2022-08-12T14:24:35.106Z,31.56
2022-08-12T14:27:03.321Z,30.95
2022-08-12T14:29:55.991Z,30.20
2022-08-12T14:32:18.053Z,31.19
2022-08-12T14:34:46.979Z,31.44
2022-08-12T14:37:55.538Z,31.81
2022-08-12T14:40:01.121Z,31.14
2022-08-12T14:42:28.310Z,31.28
2022-08-12T14:45:01.103Z,30.63
2022-08-12T14:47:29.306Z,30.94
2022-08-12T14:50:58.704Z,30.86
2022-08-12T14:55:31.983Z,30.84
2022-08-12T14:58:28.427Z,31.09
2022-08-12T15:01:17.168Z,30.87
2022-08-12T15:03:53.941Z,30.64
2022-08-12T15:06:39.862Z,30.61
2022-08-12T15:09:16.229Z,30.53
2022-08-12T15:11:54.356Z,30.31
2022-08-12T15:14:30.291Z,29.65
2022-08-12T15:17:00.465Z,29.97
2022-08-12T15:20:31.328Z,30.14
2022-08-12T15:22:38.456Z,30.30
2022-08-12T15:25:10.580Z,29.93
2022-08-12T15:28:03.780Z,30.48
2022-08-12T15:30:37.189Z,30.62
2022-08-12T15:33:12.688Z,30.81
2022-08-12T15:35:51.939Z,30.83
2022-08-12T15:38:24.863Z,30.83
2022-08-12T15:40:55.378Z,31.01
2022-08-12T15:43:50.989Z,31.15
2022-08-12T15:46:15.916Z,30.84
2022-08-12T15:48:46.961Z,30.78
2022-08-12T15:51:58.774Z,30.64
2022-08-12T15:54:33.593Z,30.41
2022-08-12T15:57:05.535Z,29.95
2022-08-12T15:59:51.631Z,29.96
2022-08-12T16:02:19.287Z,30.12
2022-08-12T16:04:50.266Z,30.04
2022-08-12T16:07:29.607Z,29.55
2022-08-12T16:10:05.886Z,30.03
2022-08-12T16:12:54.478Z,29.89
2022-08-12T16:15:22.922Z,29.46
2022-08-12T16:18:18.071Z,29.97
2022-08-12T16:20:41.994Z,29.93
2022-08-12T16:23:35.949Z,29.80
2022-08-12T16:26:06.037Z,29.65
2022-08-12T16:28:37.519Z,29.86
2022-08-12T16:31:05.550Z,29.58
2022-08-12T16:33:59.612Z,29.35
2022-08-12T16:36:25.881Z,29.11
2022-08-12T16:38:52.467Z,29.62
2022-08-12T16:41:18.859Z,29.09
2022-08-12T16:43:46.091Z,29.13
2022-08-12T16:46:31.353Z,29.06
2022-08-12T16:48:59.670Z,29.42
2022-08-12T16:51:40.170Z,29.53
2022-08-12T16:54:14.155Z,29.41
2022-08-12T16:56:54.840Z,29.40
2022-08-12T16:59:25.492Z,29.32
2022-08-12T17:01:52.734Z,29.01
2022-08-12T17:04:20.637Z,28.86
2022-08-12T17:06:52.606Z,28.42
2022-08-12T17:09:19.316Z,28.59
2022-08-12T17:11:49.237Z,28.47
2022-08-12T17:14:17.121Z,28.39
2022-08-12T17:16:51.346Z,28.32
2022-08-12T17:19:19.565Z,28.42
2022-08-12T17:22:01.198Z,28.08
2022-08-12T17:24:32.408Z,28.17
2022-08-12T17:27:00.640Z,28.13
2022-08-12T17:30:01.100Z,28.24
2022-08-12T17:32:14.443Z,28.11
2022-08-12T17:35:00.151Z,27.82
2022-08-12T17:37:26.931Z,27.90
2022-08-12T17:40:12.283Z,27.71
2022-08-12T17:42:47.598Z,27.52
2022-08-12T17:45:19.478Z,27.49
2022-08-12T17:48:01.869Z,27.46
2022-08-12T17:50:38.256Z,27.36
2022-08-12T17:53:08.142Z,27.20
2022-08-12T17:55:40.455Z,27.07
2022-08-12T17:58:14.349Z,26.86
2022-08-12T18:00:44.110Z,26.81
2022-08-12T18:04:04.633Z,26.67
2022-08-12T18:06:08.100Z,26.49
2022-08-12T18:08:43.308Z,26.42
2022-08-12T18:12:05.476Z,26.21
2022-08-12T18:14:28.828Z,26.03
2022-08-12T18:16:57.979Z,25.91
2022-08-12T18:20:03.510Z,25.77
2022-08-12T18:22:17.530Z,25.59
2022-08-12T18:24:49.518Z,25.49
2022-08-12T18:27:44.796Z,25.39
2022-08-12T18:30:21.055Z,25.34
2022-08-12T18:33:03.974Z,25.17
2022-08-12T18:35:47.134Z,25.02
2022-08-12T18:38:21.868Z,24.87
2022-08-12T18:41:10.039Z,24.72
2022-08-12T18:44:00.071Z,24.64
2022-08-12T18:46:35.779Z,24.53
2022-08-12T18:49:17.626Z,24.43
2022-08-12T18:51:55.455Z,24.31
2022-08-12T18:54:32.287Z,24.14
2022-08-12T18:57:01.695Z,24.00
2022-08-12T19:00:00.971Z,23.88
2022-08-12T19:02:21.750Z,23.78
2022-08-12T19:04:52.953Z,23.66
2022-08-12T19:07:25.544Z,23.59
2022-08-12T19:10:01.474Z,23.52
2022-08-12T19:12:57.224Z,23.45
2022-08-12T19:15:26.355Z,23.39
2022-08-12T19:18:01.229Z,23.32
2022-08-12T19:20:34.268Z,23.27
2022-08-12T19:23:07.428Z,23.17
2022-08-12T19:26:00.502Z,23.10
2022-08-12T19:28:35.270Z,23.04
2022-08-12T19:31:57.361Z,22.95
2022-08-12T19:38:03.211Z,22.78
2022-08-12T19:40:30.923Z,22.68
2022-08-12T19:43:20.664Z,22.64
2022-08-12T19:45:56.558Z,22.59
2022-08-12T19:48:27.678Z,22.54
2022-08-12T19:50:57.465Z,22.55
2022-08-12T19:53:24.927Z,22.49
2022-08-12T19:55:55.746Z,22.45
2022-08-12T19:58:23.392Z,22.42
2022-08-12T20:00:53.620Z,22.34
2022-08-12T20:03:38.997Z,22.25
2022-08-12T20:06:15.772Z,22.20
2022-08-12T20:08:48.984Z,22.22
2022-08-12T20:12:13.707Z,22.21
2022-08-12T20:14:10.243Z,22.14
2022-08-12T20:17:01.695Z,22.12
2022-08-12T20:20:00.904Z,22.04
2022-08-12T20:22:24.352Z,21.98
2022-08-12T20:24:57.962Z,21.86
2022-08-12T20:28:03.075Z,21.96
2022-08-12T20:30:17.895Z,22.18
2022-08-12T20:32:58.644Z,22.09
2022-08-12T20:35:39.031Z,22.13
2022-08-12T20:38:27.034Z,22.05
2022-08-12T20:40:54.733Z,22.02
2022-08-12T20:43:24.122Z,22.06
2022-08-12T20:45:57.206Z,21.92
2022-08-12T20:48:25.321Z,21.76
2022-08-12T20:50:53.940Z,21.76
2022-08-12T20:53:27.608Z,21.67
2022-08-12T20:56:00.482Z,21.59
2022-08-12T20:58:28.138Z,21.46
2022-08-12T21:00:57.446Z,21.31
2022-08-12T21:03:52.423Z,21.25
2022-08-12T21:06:42.994Z,21.13
2022-08-12T21:09:09.571Z,21.04
2022-08-12T21:11:36.539Z,20.95
2022-08-12T21:14:04.533Z,20.81
2022-08-12T21:16:39.007Z,20.72
2022-08-12T21:19:08.187Z,20.58
2022-08-12T21:21:40.687Z,20.51
2022-08-12T21:24:17.786Z,20.38
2022-08-12T21:26:53.214Z,20.31
2022-08-12T21:29:20.043Z,20.25
2022-08-12T21:32:39.100Z,20.19
2022-08-12T21:34:34.092Z,20.11
2022-08-12T21:37:13.161Z,20.03
2022-08-12T21:39:53.460Z,19.92
2022-08-12T21:42:26.949Z,19.91
2022-08-12T21:45:48.079Z,19.88
2022-08-12T21:47:43.350Z,19.73
2022-08-12T21:50:10.176Z,19.71
2022-08-12T21:52:48.902Z,19.62
2022-08-12T21:55:18.810Z,19.54
2022-08-12T21:57:54.529Z,19.47
2022-08-12T22:00:34.384Z,19.44
2022-08-12T22:04:01.661Z,19.35
2022-08-12T22:06:31.829Z,19.27
2022-08-12T22:09:15.872Z,19.19
2022-08-12T22:11:44.026Z,19.15
2022-08-12T22:14:21.476Z,19.07
2022-08-12T22:16:52.753Z,19.02
2022-08-12T22:19:21.094Z,18.90
2022-08-12T22:21:52.340Z,18.83
2022-08-12T22:24:27.152Z,18.79
2022-08-12T22:27:17.879Z,18.79
2022-08-12T22:30:17.054Z,18.76
2022-08-12T22:32:51.345Z,18.76
2022-08-12T22:35:56.000Z,18.69
2022-08-12T22:38:23.925Z,18.67
2022-08-12T22:41:01.102Z,18.60
2022-08-12T22:43:59.167Z,18.57
2022-08-12T22:46:34.687Z,18.52
2022-08-12T22:49:01.439Z,18.42
2022-08-12T22:52:00.249Z,18.41
2022-08-12T22:54:37.010Z,18.30
2022-08-12T22:57:05.406Z,18.23
2022-08-12T22:59:55.090Z,18.15
2022-08-12T23:02:28.734Z,18.10
2022-08-12T23:04:56.693Z,18.04
2022-08-12T23:07:24.287Z,17.97
2022-08-12T23:09:51.649Z,17.96
2022-08-12T23:12:46.427Z,17.91
2022-08-12T23:15:15.215Z,17.80
2022-08-12T23:17:42.593Z,17.77
2022-08-12T23:20:11.431Z,17.72
2022-08-12T23:22:40.023Z,17.68
2022-08-12T23:25:19.081Z,17.66
2022-08-12T23:28:29.216Z,17.62
2022-08-12T23:31:04.330Z,17.58
2022-08-12T23:34:01.875Z,17.53
2022-08-12T23:36:39.819Z,17.47
2022-08-12T23:40:13.898Z,17.39
2022-08-12T23:42:17.581Z,17.36
2022-08-12T23:44:44.860Z,17.33
2022-08-12T23:47:13.023Z,17.33
2022-08-12T23:49:57.601Z,17.33
2022-08-12T23:52:28.654Z,17.32
2022-08-12T23:55:23.646Z,17.29
2022-08-12T23:58:17.205Z,17.24
